sensor_id;sensor_type;location;lat;lon;timestamp;pressure;altitude;pressure_sealevel;temperature;humidity
75536;BME280;64119;52.070;20.804;2023-08-06T00:01:41;99360.73;;;19.00;100.00
75536;BME280;64119;52.070;20.804;2023-08-06T00:04:08;99349.91;;;18.97;100.00
75536;BME280;64119;52.070;20.804;2023-08-06T00:06:36;99342.40;;;18.95;100.00
75536;BME280;64119;52.070;20.804;2023-08-06T00:09:04;99341.14;;;18.92;100.00
75536;BME280;64119;52.070;20.804;2023-08-06T00:11:32;99343.13;;;18.91;100.00
75536;BME280;64119;52.070;20.804;2023-08-06T00:13:59;99336.69;;;18.88;100.00
75536;BME280;64119;52.070;20.804;2023-08-06T00:16:27;99321.04;;;18.87;100.00
75536;BME280;64119;52.070;20.804;2023-08-06T00:18:55;99319.10;;;18.86;100.00
75536;BME280;64119;52.070;20.804;2023-08-06T00:21:23;99323.13;;;18.84;100.00
75536;BME280;64119;52.070;20.804;2023-08-06T00:23:50;99325.06;;;18.83;100.00
75536;BME280;64119;52.070;20.804;2023-08-06T00:26:19;99315.38;;;18.81;100.00
75536;BME280;64119;52.070;20.804;2023-08-06T00:28:47;99304.42;;;18.80;100.00
75536;BME280;64119;52.070;20.804;2023-08-06T00:31:15;99301.20;;;18.78;100.00
75536;BME280;64119;52.070;20.804;2023-08-06T00:33:43;99296.52;;;18.75;100.00
75536;BME280;64119;52.070;20.804;2023-08-06T00:36:10;99284.48;;;18.70;100.00
75536;BME280;64119;52.070;20.804;2023-08-06T00:38:38;99275.34;;;18.68;100.00
75536;BME280;64119;52.070;20.804;2023-08-06T00:41:06;99268.73;;;18.67;100.00
75536;BME280;64119;52.070;20.804;2023-08-06T00:43:34;99258.90;;;18.65;100.00
75536;BME280;64119;52.070;20.804;2023-08-06T00:46:01;99247.55;;;18.64;100.00
75536;BME280;64119;52.070;20.804;2023-08-06T00:48:31;99232.67;;;18.62;100.00
75536;BME280;64119;52.070;20.804;2023-08-06T00:51:00;99217.20;;;18.60;100.00
75536;BME280;64119;52.070;20.804;2023-08-06T00:53:28;99200.17;;;18.59;100.00
75536;BME280;64119;52.070;20.804;2023-08-06T00:55:57;99191.40;;;18.58;100.00
75536;BME280;64119;52.070;20.804;2023-08-06T00:58:25;99185.34;;;18.57;100.00
75536;BME280;64119;52.070;20.804;2023-08-06T01:00:53;99181.84;;;18.56;100.00
75536;BME280;64119;52.070;20.804;2023-08-06T01:03:21;99177.11;;;18.55;100.00
75536;BME280;64119;52.070;20.804;2023-08-06T01:05:50;99169.44;;;18.55;100.00
75536;BME280;64119;52.070;20.804;2023-08-06T01:11:25;99166.75;;;18.57;100.00
75536;BME280;64119;52.070;20.804;2023-08-06T01:13:59;99149.13;;;18.54;100.00
75536;BME280;64119;52.070;20.804;2023-08-06T01:16:30;99137.10;;;18.54;100.00
75536;BME280;64119;52.070;20.804;2023-08-06T01:18:58;99130.16;;;18.53;100.00
75536;BME280;64119;52.070;20.804;2023-08-06T01:21:26;99127.96;;;18.54;100.00
75536;BME280;64119;52.070;20.804;2023-08-06T01:23:54;99118.52;;;18.53;100.00
75536;BME280;64119;52.070;20.804;2023-08-06T01:26:30;99113.10;;;18.53;100.00
75536;BME280;64119;52.070;20.804;2023-08-06T01:29:14;99110.94;;;18.53;100.00
75536;BME280;64119;52.070;20.804;2023-08-06T01:31:43;99098.48;;;18.52;100.00
75536;BME280;64119;52.070;20.804;2023-08-06T01:34:22;99094.61;;;18.52;100.00
75536;BME280;64119;52.070;20.804;2023-08-06T01:36:51;99095.67;;;18.53;100.00
75536;BME280;64119;52.070;20.804;2023-08-06T01:39:19;99092.89;;;18.54;100.00
75536;BME280;64119;52.070;20.804;2023-08-06T01:41:48;99087.90;;;18.54;100.00
75536;BME280;64119;52.070;20.804;2023-08-06T01:44:17;99075.21;;;18.55;100.00
75536;BME280;64119;52.070;20.804;2023-08-06T01:46:45;99070.54;;;18.57;100.00
75536;BME280;64119;52.070;20.804;2023-08-06T01:49:12;99066.25;;;18.58;100.00
75536;BME280;64119;52.070;20.804;2023-08-06T01:51:40;99063.08;;;18.59;100.00
75536;BME280;64119;52.070;20.804;2023-08-06T01:54:08;99056.02;;;18.59;100.00
75536;BME280;64119;52.070;20.804;2023-08-06T01:56:35;99052.55;;;18.59;100.00
75536;BME280;64119;52.070;20.804;2023-08-06T01:59:03;99052.15;;;18.62;100.00
75536;BME280;64119;52.070;20.804;2023-08-06T02:01:32;99048.23;;;18.62;100.00
75536;BME280;64119;52.070;20.804;2023-08-06T02:03:59;99045.64;;;18.63;100.00
75536;BME280;64119;52.070;20.804;2023-08-06T02:06:27;99047.15;;;18.65;100.00
75536;BME280;64119;52.070;20.804;2023-08-06T02:08:55;99039.52;;;18.66;100.00
75536;BME280;64119;52.070;20.804;2023-08-06T02:11:23;99038.71;;;18.66;100.00
75536;BME280;64119;52.070;20.804;2023-08-06T02:13:50;99037.80;;;18.68;100.00
75536;BME280;64119;52.070;20.804;2023-08-06T02:16:19;99039.79;;;18.68;100.00
75536;BME280;64119;52.070;20.804;2023-08-06T02:18:47;99042.47;;;18.68;100.00
75536;BME280;64119;52.070;20.804;2023-08-06T02:21:14;99051.00;;;18.70;100.00
75536;BME280;64119;52.070;20.804;2023-08-06T02:23:42;99055.47;;;18.71;100.00
75536;BME280;64119;52.070;20.804;2023-08-06T02:26:10;99055.84;;;18.72;100.00
75536;BME280;64119;52.070;20.804;2023-08-06T02:28:38;99059.39;;;18.75;100.00
75536;BME280;64119;52.070;20.804;2023-08-06T02:31:06;99051.33;;;18.75;100.00
75536;BME280;64119;52.070;20.804;2023-08-06T02:33:34;99050.73;;;18.75;100.00
75536;BME280;64119;52.070;20.804;2023-08-06T02:36:04;99050.27;;;18.78;100.00
75536;BME280;64119;52.070;20.804;2023-08-06T02:38:32;99045.45;;;18.79;100.00
75536;BME280;64119;52.070;20.804;2023-08-06T02:41:04;99039.91;;;18.80;100.00
75536;BME280;64119;52.070;20.804;2023-08-06T02:43:32;99026.59;;;18.81;100.00
75536;BME280;64119;52.070;20.804;2023-08-06T02:46:01;99024.85;;;18.83;100.00
75536;BME280;64119;52.070;20.804;2023-08-06T02:48:29;99018.98;;;18.83;100.00
75536;BME280;64119;52.070;20.804;2023-08-06T02:50:58;99014.05;;;18.84;100.00
75536;BME280;64119;52.070;20.804;2023-08-06T02:53:27;99001.52;;;18.85;100.00
75536;BME280;64119;52.070;20.804;2023-08-06T02:55:55;98993.08;;;18.85;100.00
75536;BME280;64119;52.070;20.804;2023-08-06T02:58:26;98990.98;;;18.86;100.00
75536;BME280;64119;52.070;20.804;2023-08-06T03:01:05;98991.37;;;18.87;100.00
75536;BME280;64119;52.070;20.804;2023-08-06T03:03:43;98988.45;;;18.87;100.00
75536;BME280;64119;52.070;20.804;2023-08-06T03:06:10;98982.33;;;18.88;100.00
75536;BME280;64119;52.070;20.804;2023-08-06T03:08:43;98971.73;;;18.88;100.00
75536;BME280;64119;52.070;20.804;2023-08-06T03:11:11;98955.98;;;18.88;100.00
75536;BME280;64119;52.070;20.804;2023-08-06T03:13:39;98940.61;;;18.88;100.00
75536;BME280;64119;52.070;20.804;2023-08-06T03:16:08;98924.17;;;18.88;100.00
75536;BME280;64119;52.070;20.804;2023-08-06T03:18:36;98925.89;;;18.87;100.00
75536;BME280;64119;52.070;20.804;2023-08-06T03:21:05;98934.48;;;18.88;100.00
75536;BME280;64119;52.070;20.804;2023-08-06T03:23:33;98938.80;;;18.88;100.00
75536;BME280;64119;52.070;20.804;2023-08-06T03:26:03;98934.76;;;18.88;100.00
75536;BME280;64119;52.070;20.804;2023-08-06T03:28:32;98926.05;;;18.89;100.00
75536;BME280;64119;52.070;20.804;2023-08-06T03:31:03;98919.96;;;18.90;100.00
75536;BME280;64119;52.070;20.804;2023-08-06T03:33:36;98915.92;;;18.90;100.00
75536;BME280;64119;52.070;20.804;2023-08-06T03:36:05;98911.95;;;18.92;100.00
75536;BME280;64119;52.070;20.804;2023-08-06T03:38:34;98907.31;;;18.93;100.00
75536;BME280;64119;52.070;20.804;2023-08-06T03:41:03;98899.24;;;18.94;100.00
75536;BME280;64119;52.070;20.804;2023-08-06T03:43:31;98893.13;;;18.96;100.00
75536;BME280;64119;52.070;20.804;2023-08-06T03:46:00;98886.86;;;18.97;100.00
75536;BME280;64119;52.070;20.804;2023-08-06T03:48:28;98877.23;;;18.97;100.00
75536;BME280;64119;52.070;20.804;2023-08-06T03:50:55;98864.83;;;18.98;100.00
75536;BME280;64119;52.070;20.804;2023-08-06T03:53:24;98855.09;;;18.99;100.00
75536;BME280;64119;52.070;20.804;2023-08-06T03:55:52;98848.09;;;19.00;100.00
75536;BME280;64119;52.070;20.804;2023-08-06T03:58:20;98845.35;;;19.00;100.00
75536;BME280;64119;52.070;20.804;2023-08-06T04:00:48;98843.17;;;19.02;100.00
75536;BME280;64119;52.070;20.804;2023-08-06T04:03:16;98839.58;;;19.03;100.00
75536;BME280;64119;52.070;20.804;2023-08-06T04:05:44;98833.20;;;19.05;100.00
75536;BME280;64119;52.070;20.804;2023-08-06T04:08:12;98831.00;;;19.08;100.00
75536;BME280;64119;52.070;20.804;2023-08-06T04:10:40;98826.42;;;19.08;100.00
75536;BME280;64119;52.070;20.804;2023-08-06T04:13:08;98827.65;;;19.10;100.00
75536;BME280;64119;52.070;20.804;2023-08-06T04:15:35;98827.03;;;19.13;100.00
75536;BME280;64119;52.070;20.804;2023-08-06T04:18:03;98824.96;;;19.15;100.00
75536;BME280;64119;52.070;20.804;2023-08-06T04:20:31;98824.63;;;19.17;100.00
75536;BME280;64119;52.070;20.804;2023-08-06T04:22:58;98822.45;;;19.19;100.00
75536;BME280;64119;52.070;20.804;2023-08-06T04:25:26;98819.59;;;19.21;100.00
75536;BME280;64119;52.070;20.804;2023-08-06T04:27:54;98816.47;;;19.22;100.00
75536;BME280;64119;52.070;20.804;2023-08-06T04:30:22;98809.20;;;19.24;100.00
75536;BME280;64119;52.070;20.804;2023-08-06T04:32:50;98805.95;;;19.26;100.00
75536;BME280;64119;52.070;20.804;2023-08-06T04:35:18;98809.47;;;19.29;100.00
75536;BME280;64119;52.070;20.804;2023-08-06T04:37:46;98800.72;;;19.33;100.00
75536;BME280;64119;52.070;20.804;2023-08-06T04:40:14;98801.02;;;19.35;100.00
75536;BME280;64119;52.070;20.804;2023-08-06T04:42:42;98798.78;;;19.38;100.00
75536;BME280;64119;52.070;20.804;2023-08-06T04:45:10;98801.56;;;19.39;100.00
75536;BME280;64119;52.070;20.804;2023-08-06T04:47:38;98797.73;;;19.41;100.00
75536;BME280;64119;52.070;20.804;2023-08-06T04:50:06;98798.66;;;19.43;100.00
75536;BME280;64119;52.070;20.804;2023-08-06T04:52:34;98788.05;;;19.46;100.00
75536;BME280;64119;52.070;20.804;2023-08-06T04:55:02;98783.11;;;19.49;100.00
75536;BME280;64119;52.070;20.804;2023-08-06T04:57:29;98783.88;;;19.53;100.00
75536;BME280;64119;52.070;20.804;2023-08-06T04:59:57;98776.44;;;19.55;100.00
75536;BME280;64119;52.070;20.804;2023-08-06T05:02:25;98775.82;;;19.58;100.00
75536;BME280;64119;52.070;20.804;2023-08-06T05:04:52;98772.02;;;19.61;100.00
75536;BME280;64119;52.070;20.804;2023-08-06T05:07:20;98766.50;;;19.63;100.00
75536;BME280;64119;52.070;20.804;2023-08-06T05:09:48;98763.45;;;19.67;100.00
75536;BME280;64119;52.070;20.804;2023-08-06T05:12:16;98761.53;;;19.71;100.00
75536;BME280;64119;52.070;20.804;2023-08-06T05:14:44;98761.00;;;19.74;100.00
75536;BME280;64119;52.070;20.804;2023-08-06T05:17:12;98758.00;;;19.78;100.00
75536;BME280;64119;52.070;20.804;2023-08-06T05:19:40;98753.91;;;19.82;100.00
75536;BME280;64119;52.070;20.804;2023-08-06T05:22:07;98746.27;;;19.86;100.00
75536;BME280;64119;52.070;20.804;2023-08-06T05:24:35;98744.48;;;19.90;100.00
75536;BME280;64119;52.070;20.804;2023-08-06T05:27:03;98743.19;;;19.96;100.00
75536;BME280;64119;52.070;20.804;2023-08-06T05:29:31;98742.69;;;20.02;100.00
75536;BME280;64119;52.070;20.804;2023-08-06T05:31:59;98738.33;;;20.07;100.00
75536;BME280;64119;52.070;20.804;2023-08-06T05:34:26;98732.98;;;20.15;100.00
75536;BME280;64119;52.070;20.804;2023-08-06T05:36:54;98732.08;;;20.24;100.00
75536;BME280;64119;52.070;20.804;2023-08-06T05:39:22;98722.09;;;20.30;100.00
75536;BME280;64119;52.070;20.804;2023-08-06T05:41:50;98714.70;;;20.38;100.00
75536;BME280;64119;52.070;20.804;2023-08-06T05:44:18;98709.27;;;20.44;100.00
75536;BME280;64119;52.070;20.804;2023-08-06T05:46:46;98711.38;;;20.51;100.00
75536;BME280;64119;52.070;20.804;2023-08-06T05:49:14;98703.55;;;20.62;100.00
75536;BME280;64119;52.070;20.804;2023-08-06T05:51:42;98702.30;;;20.70;99.51
75536;BME280;64119;52.070;20.804;2023-08-06T05:54:09;98702.86;;;20.81;99.44
75536;BME280;64119;52.070;20.804;2023-08-06T05:56:37;98706.38;;;20.93;98.96
75536;BME280;64119;52.070;20.804;2023-08-06T05:59:05;98706.38;;;21.03;98.22
75536;BME280;64119;52.070;20.804;2023-08-06T06:01:33;98702.52;;;21.15;98.24
75536;BME280;64119;52.070;20.804;2023-08-06T06:04:00;98698.85;;;21.26;97.28
75536;BME280;64119;52.070;20.804;2023-08-06T06:06:28;98691.52;;;21.33;96.70
75536;BME280;64119;52.070;20.804;2023-08-06T06:08:56;98684.48;;;21.42;96.63
75536;BME280;64119;52.070;20.804;2023-08-06T06:11:24;98680.65;;;21.47;95.61
75536;BME280;64119;52.070;20.804;2023-08-06T06:13:51;98676.10;;;21.53;95.30
75536;BME280;64119;52.070;20.804;2023-08-06T06:16:19;98679.66;;;21.56;93.62
75536;BME280;64119;52.070;20.804;2023-08-06T06:18:47;98679.02;;;21.64;94.12
75536;BME280;64119;52.070;20.804;2023-08-06T06:21:15;98674.02;;;21.71;93.69
75536;BME280;64119;52.070;20.804;2023-08-06T06:23:43;98671.53;;;21.76;92.89
75536;BME280;64119;52.070;20.804;2023-08-06T06:26:10;98667.63;;;21.82;93.31
75536;BME280;64119;52.070;20.804;2023-08-06T06:28:38;98658.15;;;21.81;92.28
75536;BME280;64119;52.070;20.804;2023-08-06T06:31:06;98656.66;;;21.79;91.59
75536;BME280;64119;52.070;20.804;2023-08-06T06:33:34;98653.70;;;21.85;92.76
75536;BME280;64119;52.070;20.804;2023-08-06T06:36:01;98647.98;;;21.98;92.69
75536;BME280;64119;52.070;20.804;2023-08-06T06:38:32;98642.21;;;22.06;92.19
75536;BME280;64119;52.070;20.804;2023-08-06T06:41:00;98642.06;;;22.15;90.26
75536;BME280;64119;52.070;20.804;2023-08-06T06:43:27;98643.14;;;22.22;89.72
75536;BME280;64119;52.070;20.804;2023-08-06T06:45:59;98639.88;;;22.30;89.50
75536;BME280;64119;52.070;20.804;2023-08-06T06:48:32;98639.30;;;22.39;90.30
75536;BME280;64119;52.070;20.804;2023-08-06T06:51:00;98634.05;;;22.57;89.31
75536;BME280;64119;52.070;20.804;2023-08-06T06:53:28;98633.76;;;22.71;88.03
75536;BME280;64119;52.070;20.804;2023-08-06T06:56:00;98630.44;;;22.66;86.08
75536;BME280;64119;52.070;20.804;2023-08-06T06:58:28;98627.77;;;22.77;86.99
75536;BME280;64119;52.070;20.804;2023-08-06T07:00:56;98628.14;;;23.00;87.49
75536;BME280;64119;52.070;20.804;2023-08-06T07:03:24;98633.58;;;23.17;86.18
75536;BME280;64119;52.070;20.804;2023-08-06T07:05:57;98633.95;;;23.31;85.89
75536;BME280;64119;52.070;20.804;2023-08-06T07:08:25;98637.05;;;23.45;85.86
75536;BME280;64119;52.070;20.804;2023-08-06T07:11:01;98644.54;;;23.48;84.71
75536;BME280;64119;52.070;20.804;2023-08-06T07:13:29;98641.58;;;23.51;83.57
75536;BME280;64119;52.070;20.804;2023-08-06T07:15:58;98634.39;;;23.52;83.34
75536;BME280;64119;52.070;20.804;2023-08-06T07:18:25;98629.43;;;23.57;82.72
75536;BME280;64119;52.070;20.804;2023-08-06T07:20:54;98628.55;;;23.58;82.79
75536;BME280;64119;52.070;20.804;2023-08-06T07:23:24;98628.42;;;23.57;82.25
75536;BME280;64119;52.070;20.804;2023-08-06T07:25:52;98629.32;;;23.66;82.39
75536;BME280;64119;52.070;20.804;2023-08-06T07:28:20;98627.14;;;23.71;82.42
75536;BME280;64119;52.070;20.804;2023-08-06T07:30:48;98623.63;;;23.83;83.16
75536;BME280;64119;52.070;20.804;2023-08-06T07:33:16;98619.93;;;23.98;82.47
75536;BME280;64119;52.070;20.804;2023-08-06T07:35:43;98618.55;;;24.04;80.71
75536;BME280;64119;52.070;20.804;2023-08-06T07:38:11;98622.05;;;24.17;80.89
75536;BME280;64119;52.070;20.804;2023-08-06T07:40:39;98623.69;;;24.30;79.78
75536;BME280;64119;52.070;20.804;2023-08-06T07:43:07;98623.98;;;24.47;80.67
75536;BME280;64119;52.070;20.804;2023-08-06T07:45:35;98623.02;;;24.61;79.17
75536;BME280;64119;52.070;20.804;2023-08-06T07:48:04;98621.88;;;24.72;78.07
75536;BME280;64119;52.070;20.804;2023-08-06T07:50:32;98618.81;;;24.83;77.66
75536;BME280;64119;52.070;20.804;2023-08-06T07:53:00;98618.52;;;24.98;76.83
75536;BME280;64119;52.070;20.804;2023-08-06T07:55:27;98615.59;;;25.19;76.77
75536;BME280;64119;52.070;20.804;2023-08-06T07:57:55;98607.60;;;25.29;75.64
75536;BME280;64119;52.070;20.804;2023-08-06T08:00:23;98607.23;;;25.40;75.96
75536;BME280;64119;52.070;20.804;2023-08-06T08:02:51;98603.67;;;25.54;75.17
75536;BME280;64119;52.070;20.804;2023-08-06T08:05:19;98605.45;;;25.70;75.25
75536;BME280;64119;52.070;20.804;2023-08-06T08:07:47;98597.44;;;25.69;73.19
75536;BME280;64119;52.070;20.804;2023-08-06T08:10:15;98601.65;;;25.74;74.08
75536;BME280;64119;52.070;20.804;2023-08-06T08:12:43;98596.91;;;25.72;73.21
75536;BME280;64119;52.070;20.804;2023-08-06T08:15:10;98595.63;;;25.64;72.90
75536;BME280;64119;52.070;20.804;2023-08-06T08:17:38;98596.56;;;25.63;73.80
75536;BME280;64119;52.070;20.804;2023-08-06T08:20:06;98597.21;;;25.65;73.45
75536;BME280;64119;52.070;20.804;2023-08-06T08:22:34;98601.04;;;25.72;73.52
75536;BME280;64119;52.070;20.804;2023-08-06T08:25:02;98603.14;;;25.74;73.64
75536;BME280;64119;52.070;20.804;2023-08-06T08:27:30;98601.14;;;25.91;74.28
75536;BME280;64119;52.070;20.804;2023-08-06T08:29:58;98604.54;;;26.11;73.45
75536;BME280;64119;52.070;20.804;2023-08-06T08:32:26;98599.02;;;26.23;72.82
75536;BME280;64119;52.070;20.804;2023-08-06T08:34:54;98598.98;;;26.31;71.65
75536;BME280;64119;52.070;20.804;2023-08-06T08:37:21;98597.20;;;26.24;71.13
75536;BME280;64119;52.070;20.804;2023-08-06T08:39:50;98590.68;;;26.12;71.62
75536;BME280;64119;52.070;20.804;2023-08-06T08:42:18;98590.88;;;26.07;71.67
75536;BME280;64119;52.070;20.804;2023-08-06T08:44:46;98589.50;;;26.24;71.07
75536;BME280;64119;52.070;20.804;2023-08-06T08:47:14;98586.83;;;26.45;71.30
75536;BME280;64119;52.070;20.804;2023-08-06T08:49:44;98580.34;;;26.55;70.18
75536;BME280;64119;52.070;20.804;2023-08-06T08:52:15;98578.27;;;26.69;70.18
75536;BME280;64119;52.070;20.804;2023-08-06T08:54:45;98577.59;;;26.83;69.78
75536;BME280;64119;52.070;20.804;2023-08-06T08:57:13;98567.50;;;26.95;68.81
75536;BME280;64119;52.070;20.804;2023-08-06T08:59:41;98561.82;;;27.17;68.79
75536;BME280;64119;52.070;20.804;2023-08-06T09:02:11;98562.34;;;27.42;68.54
75536;BME280;64119;52.070;20.804;2023-08-06T09:04:40;98560.02;;;27.60;68.06
75536;BME280;64119;52.070;20.804;2023-08-06T09:07:10;98556.33;;;27.75;68.20
75536;BME280;64119;52.070;20.804;2023-08-06T09:09:42;98552.06;;;27.93;67.22
75536;BME280;64119;52.070;20.804;2023-08-06T09:12:15;98541.90;;;28.27;67.00
75536;BME280;64119;52.070;20.804;2023-08-06T09:14:43;98538.82;;;28.56;65.67
75536;BME280;64119;52.070;20.804;2023-08-06T09:17:11;98536.23;;;28.58;65.05
75536;BME280;64119;52.070;20.804;2023-08-06T09:19:42;98534.45;;;28.78;65.11
75536;BME280;64119;52.070;20.804;2023-08-06T09:22:15;98526.67;;;29.02;65.00
75536;BME280;64119;52.070;20.804;2023-08-06T09:24:43;98528.31;;;29.30;63.40
75536;BME280;64119;52.070;20.804;2023-08-06T09:27:14;98524.34;;;29.44;61.02
75536;BME280;64119;52.070;20.804;2023-08-06T09:29:44;98529.37;;;29.50;62.17
75536;BME280;64119;52.070;20.804;2023-08-06T09:32:13;98518.68;;;29.72;61.47
75536;BME280;64119;52.070;20.804;2023-08-06T09:34:45;98515.57;;;29.79;61.64
75536;BME280;64119;52.070;20.804;2023-08-06T09:37:13;98512.71;;;29.80;60.29
75536;BME280;64119;52.070;20.804;2023-08-06T09:39:41;98505.36;;;29.58;61.36
75536;BME280;64119;52.070;20.804;2023-08-06T09:42:09;98504.98;;;29.41;60.75
75536;BME280;64119;52.070;20.804;2023-08-06T09:44:40;98498.12;;;29.27;61.63
75536;BME280;64119;52.070;20.804;2023-08-06T09:47:08;98498.63;;;29.10;60.84
75536;BME280;64119;52.070;20.804;2023-08-06T09:52:04;98486.36;;;29.61;62.33
75536;BME280;64119;52.070;20.804;2023-08-06T09:54:34;98481.47;;;30.17;60.00
75536;BME280;64119;52.070;20.804;2023-08-06T09:57:03;98474.00;;;30.61;58.61
75536;BME280;64119;52.070;20.804;2023-08-06T09:59:32;98471.19;;;30.80;56.97
75536;BME280;64119;52.070;20.804;2023-08-06T10:02:00;98470.39;;;30.60;57.44
75536;BME280;64119;52.070;20.804;2023-08-06T10:04:28;98479.08;;;30.27;56.53
75536;BME280;64119;52.070;20.804;2023-08-06T10:07:08;98469.54;;;29.86;56.46
75536;BME280;64119;52.070;20.804;2023-08-06T10:09:36;98466.42;;;29.67;58.16
75536;BME280;64119;52.070;20.804;2023-08-06T10:12:04;98462.36;;;29.49;58.15
75536;BME280;64119;52.070;20.804;2023-08-06T10:14:33;98461.10;;;29.27;58.17
75536;BME280;64119;52.070;20.804;2023-08-06T10:17:03;98455.29;;;29.28;59.06
75536;BME280;64119;52.070;20.804;2023-08-06T10:19:31;98450.84;;;29.58;58.63
75536;BME280;64119;52.070;20.804;2023-08-06T10:22:16;98448.80;;;29.73;58.14
75536;BME280;64119;52.070;20.804;2023-08-06T10:27:52;98442.56;;;30.13;55.48
75536;BME280;64119;52.070;20.804;2023-08-06T10:30:21;98440.31;;;30.23;55.66
75536;BME280;64119;52.070;20.804;2023-08-06T10:32:57;98439.73;;;29.96;55.61
75536;BME280;64119;52.070;20.804;2023-08-06T10:40:39;98435.84;;;29.05;57.32
75536;BME280;64119;52.070;20.804;2023-08-06T10:43:08;98431.89;;;28.92;57.59
75536;BME280;64119;52.070;20.804;2023-08-06T10:45:52;98423.95;;;28.76;57.75
75536;BME280;64119;52.070;20.804;2023-08-06T10:51:12;98435.58;;;28.42;58.58
75536;BME280;64119;52.070;20.804;2023-08-06T10:53:48;98430.77;;;28.24;58.74
75536;BME280;64119;52.070;20.804;2023-08-06T10:56:20;98421.96;;;28.55;58.42
75536;BME280;64119;52.070;20.804;2023-08-06T10:58:54;98417.34;;;29.18;57.92
75536;BME280;64119;52.070;20.804;2023-08-06T11:01:23;98416.77;;;29.91;56.09
75536;BME280;64119;52.070;20.804;2023-08-06T11:03:51;98414.73;;;30.27;55.27
75536;BME280;64119;52.070;20.804;2023-08-06T11:06:21;98412.52;;;30.20;55.07
75536;BME280;64119;52.070;20.804;2023-08-06T11:08:52;98406.60;;;30.49;55.17
75536;BME280;64119;52.070;20.804;2023-08-06T11:11:22;98397.96;;;30.96;54.20
75536;BME280;64119;52.070;20.804;2023-08-06T11:13:51;98386.70;;;31.37;53.28
75536;BME280;64119;52.070;20.804;2023-08-06T11:16:22;98386.95;;;31.77;50.69
75536;BME280;64119;52.070;20.804;2023-08-06T11:18:53;98382.52;;;31.94;49.44
75536;BME280;64119;52.070;20.804;2023-08-06T11:21:22;98378.85;;;32.22;49.77
75536;BME280;64119;52.070;20.804;2023-08-06T11:23:53;98371.59;;;32.63;48.50
75536;BME280;64119;52.070;20.804;2023-08-06T11:26:22;98364.27;;;32.83;46.86
75536;BME280;64119;52.070;20.804;2023-08-06T11:28:51;98359.59;;;32.63;47.28
75536;BME280;64119;52.070;20.804;2023-08-06T11:31:22;98350.13;;;32.10;48.20
75536;BME280;64119;52.070;20.804;2023-08-06T11:33:52;98352.16;;;31.70;48.95
75536;BME280;64119;52.070;20.804;2023-08-06T11:38:58;98342.69;;;31.71;47.51
75536;BME280;64119;52.070;20.804;2023-08-06T11:41:30;98338.21;;;32.01;46.65
75536;BME280;64119;52.070;20.804;2023-08-06T11:43:59;98328.48;;;31.83;46.86
75536;BME280;64119;52.070;20.804;2023-08-06T11:46:27;98330.13;;;31.75;47.80
75536;BME280;64119;52.070;20.804;2023-08-06T11:48:56;98331.04;;;31.89;46.66
75536;BME280;64119;52.070;20.804;2023-08-06T11:51:27;98323.59;;;31.51;46.02
75536;BME280;64119;52.070;20.804;2023-08-06T11:53:58;98310.46;;;31.40;46.83
75536;BME280;64119;52.070;20.804;2023-08-06T11:56:27;98301.23;;;31.70;46.91
75536;BME280;64119;52.070;20.804;2023-08-06T11:58:55;98291.17;;;31.83;46.69
75536;BME280;64119;52.070;20.804;2023-08-06T12:01:23;98289.42;;;31.63;46.50
75536;BME280;64119;52.070;20.804;2023-08-06T12:03:52;98285.14;;;31.49;47.02
75536;BME280;64119;52.070;20.804;2023-08-06T12:06:28;98287.77;;;31.33;47.77
75536;BME280;64119;52.070;20.804;2023-08-06T12:08:56;98293.80;;;31.02;47.82
75536;BME280;64119;52.070;20.804;2023-08-06T12:11:23;98296.52;;;30.77;49.04
75536;BME280;64119;52.070;20.804;2023-08-06T12:13:51;98282.92;;;30.39;49.30
75536;BME280;64119;52.070;20.804;2023-08-06T12:16:19;98279.05;;;30.02;50.17
75536;BME280;64119;52.070;20.804;2023-08-06T12:18:49;98291.10;;;29.76;50.20
75536;BME280;64119;52.070;20.804;2023-08-06T12:21:17;98299.10;;;29.47;50.83
75536;BME280;64119;52.070;20.804;2023-08-06T12:23:44;98307.60;;;29.31;51.91
75536;BME280;64119;52.070;20.804;2023-08-06T12:26:12;98302.70;;;29.06;52.60
75536;BME280;64119;52.070;20.804;2023-08-06T12:28:40;98299.39;;;28.93;53.49
75536;BME280;64119;52.070;20.804;2023-08-06T12:31:08;98308.39;;;28.76;53.46
75536;BME280;64119;52.070;20.804;2023-08-06T12:33:35;98312.19;;;28.63;54.11
75536;BME280;64119;52.070;20.804;2023-08-06T12:36:03;98325.44;;;28.51;55.04
75536;BME280;64119;52.070;20.804;2023-08-06T12:38:31;98333.33;;;28.36;55.42
75536;BME280;64119;52.070;20.804;2023-08-06T12:41:01;98326.52;;;28.18;56.47
75536;BME280;64119;52.070;20.804;2023-08-06T12:43:30;98323.09;;;28.05;56.86
75536;BME280;64119;52.070;20.804;2023-08-06T12:45:57;98317.38;;;27.93;56.58
75536;BME280;64119;52.070;20.804;2023-08-06T12:48:25;98315.62;;;27.85;56.89
75536;BME280;64119;52.070;20.804;2023-08-06T12:50:53;98331.14;;;27.80;57.05
75536;BME280;64119;52.070;20.804;2023-08-06T12:53:21;98341.54;;;27.73;58.76
75536;BME280;64119;52.070;20.804;2023-08-06T12:55:50;98341.77;;;27.64;59.45
75536;BME280;64119;52.070;20.804;2023-08-06T12:58:18;98347.52;;;27.46;60.89
75536;BME280;64119;52.070;20.804;2023-08-06T13:00:46;98344.77;;;27.27;61.88
75536;BME280;64119;52.070;20.804;2023-08-06T13:03:14;98342.90;;;27.07;62.44
75536;BME280;64119;52.070;20.804;2023-08-06T13:05:42;98336.41;;;26.96;60.93
75536;BME280;64119;52.070;20.804;2023-08-06T13:08:10;98335.45;;;26.87;60.71
75536;BME280;64119;52.070;20.804;2023-08-06T13:10:38;98323.48;;;26.84;59.83
75536;BME280;64119;52.070;20.804;2023-08-06T13:13:06;98311.70;;;26.91;59.20